createdAt,value
2022-11-05T00:00:29.177Z,26.90
2022-11-05T00:01:29.254Z,30.90
2022-11-05T00:02:29.161Z,32.00
2022-11-05T00:03:29.195Z,33.70
2022-11-05T00:04:31.113Z,31.30
2022-11-05T00:05:30.119Z,30.20
2022-11-05T00:06:29.149Z,29.70
2022-11-05T00:07:29.110Z,32.00
2022-11-05T00:08:29.101Z,31.10
2022-11-05T00:09:29.086Z,31.20
2022-11-05T00:10:29.075Z,28.60
2022-11-05T00:11:29.091Z,33.40
2022-11-05T00:12:29.054Z,27.50
2022-11-05T00:13:29.053Z,29.20
2022-11-05T00:14:29.035Z,28.40
2022-11-05T00:15:29.033Z,26.90
2022-11-05T00:16:29.040Z,28.90
2022-11-05T00:17:28.991Z,30.60
2022-11-05T00:18:28.993Z,29.50
2022-11-05T00:19:28.988Z,27.70
2022-11-05T00:20:28.979Z,31.50
2022-11-05T00:21:28.979Z,29.90
2022-11-05T00:22:28.972Z,26.50
2022-11-05T00:23:28.949Z,28.90
2022-11-05T00:24:28.939Z,27.80
2022-11-05T00:25:28.928Z,27.80
2022-11-05T00:26:28.935Z,29.90
2022-11-05T00:27:28.905Z,32.90
2022-11-05T00:28:28.928Z,32.50
2022-11-05T00:29:28.885Z,32.70
2022-11-05T00:30:28.884Z,31.70
2022-11-05T00:31:28.890Z,33.60
2022-11-05T00:32:28.862Z,29.70
2022-11-05T00:33:28.848Z,29.50
2022-11-05T00:34:28.846Z,33.90
2022-11-05T00:35:28.833Z,29.60
2022-11-05T00:36:28.840Z,30.50
2022-11-05T00:37:28.803Z,32.00
2022-11-05T00:38:28.797Z,35.80
2022-11-05T00:39:28.792Z,33.30
2022-11-05T00:40:28.776Z,32.50
2022-11-05T00:41:28.784Z,30.90
2022-11-05T00:42:28.763Z,31.60
2022-11-05T00:43:28.742Z,32.20
2022-11-05T00:44:28.746Z,29.60
2022-11-05T00:45:28.723Z,30.40
2022-11-05T00:46:28.739Z,36.10
2022-11-05T00:47:28.707Z,34.10
2022-11-05T00:48:28.704Z,33.00
2022-11-05T00:49:28.683Z,35.80
2022-11-05T00:50:28.678Z,31.60
2022-11-05T00:51:28.695Z,33.30
2022-11-05T00:52:28.661Z,31.00
2022-11-05T00:53:28.632Z,33.00
2022-11-05T00:54:28.641Z,33.60
2022-11-05T00:55:28.655Z,33.20
2022-11-05T00:56:28.650Z,32.20
2022-11-05T00:57:28.603Z,28.10
2022-11-05T00:58:28.606Z,33.70
2022-11-05T00:59:28.593Z,33.60
2022-11-05T01:00:28.585Z,32.00
2022-11-05T01:01:28.746Z,32.10
2022-11-05T01:02:28.613Z,35.30
2022-11-05T01:03:28.549Z,33.90
2022-11-05T01:04:28.622Z,36.40
2022-11-05T01:05:28.535Z,31.80
2022-11-05T01:06:28.537Z,30.50
2022-11-05T01:07:28.506Z,35.80
2022-11-05T01:08:28.500Z,35.00
2022-11-05T01:09:28.496Z,34.40
2022-11-05T01:10:28.485Z,34.90
2022-11-05T01:11:28.498Z,32.60
2022-11-05T01:12:28.468Z,35.10
2022-11-05T01:13:28.453Z,32.50
2022-11-05T01:14:28.444Z,34.60
2022-11-05T01:15:28.440Z,37.80
2022-11-05T01:16:28.437Z,33.20
2022-11-05T01:17:29.404Z,37.90
2022-11-05T01:18:28.411Z,37.90
2022-11-05T01:19:28.403Z,30.80
2022-11-05T01:20:28.380Z,33.50
2022-11-05T01:21:28.396Z,32.00
2022-11-05T01:22:28.366Z,34.00
2022-11-05T01:23:28.357Z,31.50
2022-11-05T01:24:28.352Z,33.60
2022-11-05T01:25:28.332Z,37.60
2022-11-05T01:26:28.369Z,30.70
2022-11-05T01:27:28.322Z,34.50
2022-11-05T01:28:28.337Z,31.90
2022-11-05T01:29:28.298Z,35.30
2022-11-05T01:30:28.294Z,35.30
2022-11-05T01:31:28.325Z,32.20
2022-11-05T01:32:28.282Z,30.10
2022-11-05T01:33:28.246Z,31.70
2022-11-05T01:34:28.248Z,36.10
2022-11-05T01:35:28.244Z,31.50
2022-11-05T01:36:28.255Z,36.60
2022-11-05T01:37:28.217Z,31.60
2022-11-05T01:38:28.209Z,36.20
2022-11-05T01:39:28.195Z,35.70
2022-11-05T01:40:28.197Z,35.20
2022-11-05T01:41:28.183Z,35.20
2022-11-05T01:42:28.187Z,38.00
2022-11-05T01:43:28.165Z,36.30
2022-11-05T01:44:28.154Z,32.20
2022-11-05T01:45:28.139Z,33.80
2022-11-05T01:46:28.135Z,36.70
2022-11-05T01:47:28.147Z,32.80
2022-11-05T01:48:28.097Z,36.00
2022-11-05T01:49:28.099Z,32.10
2022-11-05T01:50:28.093Z,32.90
2022-11-05T01:51:28.083Z,33.50
2022-11-05T01:52:28.087Z,38.10
2022-11-05T01:53:28.062Z,38.30
2022-11-05T01:54:28.051Z,39.50
2022-11-05T01:55:28.043Z,34.30
2022-11-05T01:56:28.026Z,36.40
2022-11-05T01:57:28.044Z,34.30
2022-11-05T01:58:28.013Z,33.20
2022-11-05T01:59:27.999Z,33.20
2022-11-05T02:00:27.992Z,35.00
2022-11-05T02:01:28.168Z,34.60
2022-11-05T02:02:28.077Z,37.80
2022-11-05T02:03:27.958Z,36.20
2022-11-05T02:04:27.950Z,37.10
2022-11-05T02:05:27.941Z,34.70
2022-11-05T02:06:27.926Z,38.90
2022-11-05T02:07:27.952Z,35.80
2022-11-05T02:08:27.911Z,35.70
2022-11-05T02:09:27.902Z,37.40
2022-11-05T02:10:27.891Z,35.20
2022-11-05T02:11:27.882Z,38.50
2022-11-05T02:12:27.886Z,36.70
2022-11-05T02:13:27.878Z,35.60
2022-11-05T02:14:27.854Z,37.00
2022-11-05T02:15:27.845Z,33.60
2022-11-05T02:16:27.832Z,36.70
2022-11-05T02:17:27.847Z,43.40
2022-11-05T02:18:27.816Z,36.40
2022-11-05T02:19:27.813Z,35.70
2022-11-05T02:20:27.788Z,34.90
2022-11-05T02:21:27.790Z,37.20
2022-11-05T02:22:27.800Z,40.00
2022-11-05T02:23:27.764Z,32.80
2022-11-05T02:24:27.753Z,31.90
2022-11-05T02:25:27.745Z,34.40
2022-11-05T02:26:27.745Z,37.40
2022-11-05T02:27:27.746Z,36.20
2022-11-05T02:28:27.717Z,38.20
2022-11-05T02:29:27.718Z,38.30
2022-11-05T02:30:27.700Z,33.50
2022-11-05T02:31:27.697Z,34.40
2022-11-05T02:32:27.701Z,35.30
2022-11-05T02:33:27.672Z,37.00
2022-11-05T02:34:27.666Z,33.90
2022-11-05T02:35:27.652Z,36.00
2022-11-05T02:36:27.643Z,35.20
2022-11-05T02:37:27.651Z,38.30
2022-11-05T02:38:27.622Z,39.30
2022-11-05T02:39:27.613Z,34.20
2022-11-05T02:40:27.590Z,38.10
2022-11-05T02:41:27.600Z,39.70
2022-11-05T02:42:27.604Z,31.70
2022-11-05T02:43:27.577Z,35.20
2022-11-05T02:44:27.550Z,35.60
2022-11-05T02:45:27.573Z,37.60
2022-11-05T02:46:27.539Z,34.50
2022-11-05T02:47:27.560Z,34.20
2022-11-05T02:48:27.522Z,36.30
2022-11-05T02:49:27.522Z,34.80
2022-11-05T02:50:27.508Z,36.00
2022-11-05T02:51:27.502Z,35.80
2022-11-05T02:52:27.500Z,37.10
2022-11-05T02:53:27.479Z,42.20
2022-11-05T02:54:27.473Z,37.20
2022-11-05T02:55:27.479Z,39.30
2022-11-05T02:56:27.447Z,39.70
2022-11-05T02:57:27.455Z,39.10
2022-11-05T02:58:27.439Z,41.90
2022-11-05T02:59:27.425Z,45.80
2022-11-05T03:00:27.398Z,37.40
2022-11-05T03:01:27.523Z,42.20
2022-11-05T03:02:27.509Z,40.80
2022-11-05T03:03:27.388Z,43.20
2022-11-05T03:04:27.367Z,40.30
2022-11-05T03:05:27.364Z,39.50
2022-11-05T03:06:27.354Z,44.80
2022-11-05T03:07:27.364Z,41.20
2022-11-05T03:08:27.335Z,42.40
2022-11-05T03:09:27.318Z,43.80
2022-11-05T03:10:27.327Z,41.80
2022-11-05T03:11:27.307Z,42.90
2022-11-05T03:12:27.317Z,41.70
2022-11-05T03:13:27.291Z,47.30
2022-11-05T03:14:27.275Z,42.60
2022-11-05T03:15:27.270Z,40.40
2022-11-05T03:16:27.254Z,46.70
2022-11-05T03:17:27.276Z,45.80
2022-11-05T03:18:27.244Z,45.20
2022-11-05T03:19:27.232Z,44.70
2022-11-05T03:20:27.223Z,43.80
2022-11-05T03:21:27.200Z,39.30
2022-11-05T03:22:27.225Z,46.10
2022-11-05T03:23:27.193Z,45.40
2022-11-05T03:24:27.190Z,45.00
2022-11-05T03:25:27.181Z,37.50
2022-11-05T03:26:27.164Z,41.80
2022-11-05T03:27:27.179Z,41.10
2022-11-05T03:28:27.150Z,37.30
2022-11-05T03:29:27.129Z,39.80
2022-11-05T03:30:27.120Z,43.00
2022-11-05T03:31:27.111Z,37.60
2022-11-05T03:32:27.128Z,44.40
2022-11-05T03:33:27.088Z,36.00
2022-11-05T03:34:27.087Z,44.10
2022-11-05T03:35:27.076Z,42.00
2022-11-05T03:36:27.063Z,42.80
2022-11-05T03:37:27.078Z,47.20
2022-11-05T03:38:27.056Z,45.50
2022-11-05T03:39:27.039Z,47.30
2022-11-05T03:40:27.026Z,44.40
2022-11-05T03:41:27.023Z,45.40
2022-11-05T03:42:27.048Z,40.80
2022-11-05T03:43:27.004Z,39.90
2022-11-05T03:44:26.994Z,44.80
2022-11-05T03:45:26.982Z,42.90
2022-11-05T03:46:26.973Z,45.50
2022-11-05T03:47:26.975Z,41.30
2022-11-05T03:48:27.008Z,40.80
2022-11-05T03:49:26.942Z,42.10
2022-11-05T03:50:26.933Z,45.00
2022-11-05T03:51:26.967Z,41.40
2022-11-05T03:52:26.928Z,43.20
2022-11-05T03:53:26.908Z,40.90
2022-11-05T03:54:26.896Z,42.70
2022-11-05T03:55:26.886Z,40.10
2022-11-05T03:56:26.883Z,41.80
2022-11-05T03:57:26.904Z,43.90
2022-11-05T03:58:26.854Z,44.80
2022-11-05T03:59:26.841Z,43.20
2022-11-05T04:00:26.902Z,43.90
2022-11-05T04:01:26.962Z,40.70
2022-11-05T04:02:26.949Z,44.10
2022-11-05T04:03:26.802Z,41.40
2022-11-05T04:04:26.797Z,44.00
2022-11-05T04:05:26.812Z,39.80
2022-11-05T04:06:26.780Z,40.60
2022-11-05T04:07:26.790Z,38.50
2022-11-05T04:08:26.746Z,43.60
2022-11-05T04:09:26.731Z,41.60
2022-11-05T04:10:26.730Z,36.10
2022-11-05T04:11:26.720Z,40.30
2022-11-05T04:12:26.729Z,43.80
2022-11-05T04:13:26.708Z,40.40
2022-11-05T04:14:26.696Z,44.40
2022-11-05T04:15:26.686Z,39.30
2022-11-05T04:16:26.682Z,42.80
2022-11-05T04:17:26.683Z,41.60
2022-11-05T04:18:26.656Z,39.10
2022-11-05T04:19:26.648Z,40.20
2022-11-05T04:20:26.665Z,42.50
2022-11-05T04:21:26.610Z,37.60
2022-11-05T04:22:26.634Z,43.20
2022-11-05T04:23:26.604Z,39.50
2022-11-05T04:24:26.600Z,35.90
2022-11-05T04:25:26.579Z,41.70
2022-11-05T04:26:26.579Z,37.90
2022-11-05T04:27:26.588Z,40.10
2022-11-05T04:28:26.562Z,35.90
2022-11-05T04:29:26.540Z,39.50
2022-11-05T04:30:26.539Z,43.00
2022-11-05T04:31:26.531Z,38.40
2022-11-05T04:32:26.537Z,40.30
2022-11-05T04:33:26.499Z,46.20
2022-11-05T04:34:26.500Z,46.50
2022-11-05T04:35:26.492Z,45.00
2022-11-05T04:36:26.485Z,41.50
2022-11-05T04:37:26.487Z,48.30
2022-11-05T04:38:26.462Z,45.80
2022-11-05T04:39:26.454Z,49.00
2022-11-05T04:40:26.447Z,43.20
2022-11-05T04:41:26.436Z,46.90
2022-11-05T04:42:26.433Z,41.40
2022-11-05T04:43:26.415Z,46.10
2022-11-05T04:44:26.399Z,43.40
2022-11-05T04:45:26.396Z,46.10
2022-11-05T04:46:26.384Z,43.20
2022-11-05T04:47:26.391Z,44.50
2022-11-05T04:48:26.358Z,40.30
2022-11-05T04:49:26.357Z,41.20
2022-11-05T04:50:26.350Z,40.30
2022-11-05T04:51:26.336Z,42.90
2022-11-05T04:52:26.346Z,41.50
2022-11-05T04:53:26.322Z,47.80
2022-11-05T04:54:26.305Z,45.60
2022-11-05T04:55:26.291Z,44.20
2022-11-05T04:56:26.286Z,45.30
2022-11-05T04:57:26.298Z,47.20
2022-11-05T04:58:26.257Z,49.60
2022-11-05T04:59:27.264Z,48.70
2022-11-05T05:00:26.232Z,46.50
2022-11-05T05:01:26.368Z,49.70
2022-11-05T05:02:26.245Z,43.70
2022-11-05T05:03:26.218Z,47.30
2022-11-05T05:04:26.194Z,44.10
2022-11-05T05:05:26.197Z,41.90
2022-11-05T05:06:26.187Z,46.30
2022-11-05T05:07:26.190Z,43.50
2022-11-05T05:08:26.160Z,49.60
2022-11-05T05:09:26.154Z,49.40
2022-11-05T05:10:26.148Z,45.10
2022-11-05T05:11:26.130Z,45.50
2022-11-05T05:12:26.146Z,46.90
2022-11-05T05:13:26.111Z,44.00
2022-11-05T05:14:26.095Z,44.50
2022-11-05T05:15:26.097Z,45.20
2022-11-05T05:16:26.081Z,47.20
2022-11-05T05:17:26.088Z,40.70
2022-11-05T05:18:26.062Z,44.70
2022-11-05T05:19:26.049Z,48.20
2022-11-05T05:20:26.031Z,47.50
2022-11-05T05:21:26.029Z,45.30
2022-11-05T05:22:26.038Z,46.20
2022-11-05T05:23:26.011Z,45.60
2022-11-05T05:24:25.991Z,48.10
2022-11-05T05:25:25.989Z,51.40
2022-11-05T05:26:25.980Z,51.30
2022-11-05T05:27:25.993Z,47.50
2022-11-05T05:28:25.965Z,45.70
2022-11-05T05:29:25.941Z,50.80
2022-11-05T05:30:25.942Z,48.40
2022-11-05T05:31:25.945Z,42.70
2022-11-05T05:32:25.922Z,49.00
2022-11-05T05:33:25.913Z,41.40
2022-11-05T05:34:25.900Z,44.70
2022-11-05T05:35:25.893Z,44.60
2022-11-05T05:36:25.890Z,51.40
2022-11-05T05:37:25.891Z,46.60
2022-11-05T05:38:25.860Z,46.20
2022-11-05T05:39:25.858Z,54.40
2022-11-05T05:40:25.834Z,46.80
2022-11-05T05:41:26.895Z,49.80
2022-11-05T05:42:25.846Z,51.90
2022-11-05T05:43:26.818Z,54.50
2022-11-05T05:44:25.811Z,57.30
2022-11-05T05:45:25.797Z,58.80
2022-11-05T05:46:25.787Z,56.00
2022-11-05T05:47:25.794Z,53.40
2022-11-05T05:48:25.753Z,58.30
2022-11-05T05:49:25.745Z,61.20
2022-11-05T05:50:25.740Z,65.50
2022-11-05T05:51:25.728Z,65.50
2022-11-05T05:52:25.727Z,61.20
2022-11-05T05:53:25.705Z,57.60
2022-11-05T05:54:30.849Z,63.40
2022-11-05T05:55:27.693Z,57.60
2022-11-05T05:56:25.681Z,55.60
2022-11-05T05:57:25.690Z,59.30
2022-11-05T05:58:25.654Z,61.60
2022-11-05T05:59:25.653Z,62.70
2022-11-05T06:00:25.644Z,70.80
2022-11-05T06:01:25.704Z,62.40
2022-11-05T06:02:25.731Z,66.40
2022-11-05T06:03:25.607Z,67.20
2022-11-05T06:04:25.598Z,74.60
2022-11-05T06:05:25.588Z,65.60
2022-11-05T06:06:25.574Z,66.80
2022-11-05T06:07:25.589Z,69.30
2022-11-05T06:08:25.550Z,81.40
2022-11-05T06:09:25.545Z,65.80
2022-11-05T06:10:25.576Z,61.10
2022-11-05T06:11:25.526Z,61.60
2022-11-05T06:12:25.525Z,59.40
2022-11-05T06:13:25.508Z,52.30
2022-11-05T06:14:25.496Z,50.90
2022-11-05T06:15:25.481Z,55.50
2022-11-05T06:16:25.478Z,56.50
2022-11-05T06:17:25.491Z,46.10
2022-11-05T06:18:25.458Z,54.80
2022-11-05T06:19:25.445Z,48.40
2022-11-05T06:20:25.438Z,45.30
2022-11-05T06:21:25.424Z,45.80
2022-11-05T06:22:25.437Z,46.60
2022-11-05T06:23:25.406Z,42.30
2022-11-05T06:24:25.400Z,42.80
2022-11-05T06:25:25.441Z,42.70
2022-11-05T06:26:57.293Z,43.20
2022-11-05T06:27:25.416Z,43.50
2022-11-05T06:28:25.357Z,42.30
2022-11-05T06:29:25.345Z,43.40
2022-11-05T06:30:25.328Z,40.50
2022-11-05T06:31:25.320Z,42.30
2022-11-05T06:32:25.338Z,45.40
2022-11-05T06:33:25.293Z,44.20
2022-11-05T06:34:25.287Z,45.20
2022-11-05T06:35:25.265Z,42.60
2022-11-05T06:36:25.260Z,48.80
2022-11-05T06:37:25.266Z,47.80
2022-11-05T06:38:25.248Z,53.70
2022-11-05T06:39:25.221Z,46.10
2022-11-05T06:40:25.219Z,48.90
2022-11-05T06:41:25.211Z,51.30
2022-11-05T06:42:25.221Z,51.90
2022-11-05T06:43:25.185Z,49.50
2022-11-05T06:44:25.180Z,58.20
2022-11-05T06:45:25.176Z,45.80
2022-11-05T06:46:25.163Z,53.80
2022-11-05T06:47:25.169Z,48.30
2022-11-05T06:48:25.130Z,48.40
2022-11-05T06:49:25.138Z,56.10
2022-11-05T06:50:25.123Z,47.70
2022-11-05T06:51:25.104Z,47.80
2022-11-05T06:52:25.126Z,52.00
2022-11-05T06:53:25.088Z,52.10
2022-11-05T06:54:25.081Z,47.70
2022-11-05T06:55:25.075Z,51.80
2022-11-05T06:56:25.065Z,48.60
2022-11-05T06:57:25.070Z,51.70
2022-11-05T06:58:25.047Z,50.70
2022-11-05T06:59:25.029Z,42.70
2022-11-05T07:00:25.021Z,47.70
2022-11-05T07:01:25.119Z,44.80
2022-11-05T07:02:25.054Z,44.90
2022-11-05T07:03:24.977Z,47.00
2022-11-05T07:04:24.999Z,46.20
2022-11-05T07:05:24.963Z,52.20
2022-11-05T07:06:24.964Z,51.90
2022-11-05T07:07:24.961Z,51.70
2022-11-05T07:08:24.935Z,47.40
2022-11-05T07:09:24.921Z,48.50
2022-11-05T07:10:24.923Z,50.40
2022-11-05T07:11:24.895Z,44.40
2022-11-05T07:12:24.919Z,50.20
2022-11-05T07:13:24.882Z,47.00
2022-11-05T07:14:24.867Z,48.50
2022-11-05T07:15:24.859Z,49.80
2022-11-05T07:16:24.849Z,49.30
2022-11-05T07:17:24.857Z,50.60
2022-11-05T07:18:24.831Z,49.20
2022-11-05T07:19:24.837Z,46.50
2022-11-05T07:20:28.213Z,54.20
2022-11-05T07:21:24.795Z,48.10
2022-11-05T07:22:24.799Z,44.70
2022-11-05T07:23:24.775Z,50.00
2022-11-05T07:24:24.755Z,43.80
2022-11-05T07:25:24.753Z,41.60
2022-11-05T07:26:24.742Z,42.00
2022-11-05T07:27:24.760Z,44.20
2022-11-05T07:28:24.730Z,40.80
2022-11-05T07:29:24.706Z,44.40
2022-11-05T07:30:24.712Z,46.70
2022-11-05T07:31:24.692Z,37.20
2022-11-05T07:32:24.685Z,36.70
2022-11-05T07:33:24.671Z,37.40
2022-11-05T07:34:24.662Z,36.40
2022-11-05T07:35:24.651Z,37.20
2022-11-05T07:36:24.650Z,38.60
2022-11-05T07:37:24.643Z,42.10
2022-11-05T07:38:24.627Z,43.50
2022-11-05T07:39:24.611Z,36.40
2022-11-05T07:40:24.587Z,39.10
2022-11-05T07:41:24.640Z,32.90
2022-11-05T07:42:24.602Z,36.60
2022-11-05T07:43:24.568Z,35.10
2022-11-05T07:44:24.813Z,37.40
2022-11-05T07:45:24.579Z,33.70
2022-11-05T07:46:24.538Z,32.40
2022-11-05T07:47:24.549Z,33.90
2022-11-05T07:48:24.513Z,32.70
2022-11-05T07:49:24.520Z,30.20
2022-11-05T07:50:24.504Z,36.00
2022-11-05T07:51:24.501Z,31.10
2022-11-05T07:52:24.501Z,28.90
2022-11-05T07:53:24.468Z,28.20
2022-11-05T07:54:24.462Z,26.30
2022-11-05T07:55:24.457Z,34.80
2022-11-05T07:56:24.433Z,31.70
2022-11-05T07:57:24.443Z,30.10
2022-11-05T07:58:24.418Z,29.50
2022-11-05T07:59:24.403Z,33.20
2022-11-05T08:00:24.405Z,31.60
2022-11-05T08:01:24.537Z,31.90
2022-11-05T08:02:24.606Z,29.70
2022-11-05T08:03:24.495Z,30.30
2022-11-05T08:04:24.368Z,28.40
2022-11-05T08:05:24.356Z,29.30
2022-11-05T08:06:24.344Z,33.80
2022-11-05T08:07:24.352Z,25.20
2022-11-05T08:08:24.328Z,24.10
2022-11-05T08:09:24.331Z,30.20
2022-11-05T08:10:24.303Z,28.40
2022-11-05T08:11:24.295Z,32.00
2022-11-05T08:12:24.303Z,28.50
2022-11-05T08:13:24.272Z,25.70
2022-11-05T08:14:24.282Z,26.90
2022-11-05T08:15:24.257Z,25.40
2022-11-05T08:16:24.247Z,26.80
2022-11-05T08:17:24.259Z,26.30
2022-11-05T08:18:24.247Z,29.90
2022-11-05T08:19:24.216Z,28.70
2022-11-05T08:20:24.198Z,31.40
2022-11-05T08:21:24.201Z,28.50
2022-11-05T08:22:24.212Z,28.10
2022-11-05T08:23:24.184Z,26.40
2022-11-05T08:24:24.173Z,27.50
2022-11-05T08:25:24.156Z,23.80
2022-11-05T08:26:24.151Z,24.30
2022-11-05T08:27:24.177Z,24.20
2022-11-05T08:28:24.120Z,23.40
2022-11-05T08:29:24.117Z,30.10
2022-11-05T08:30:24.116Z,26.80
2022-11-05T08:31:24.096Z,21.20
2022-11-05T08:32:24.282Z,23.20
2022-11-05T08:33:24.085Z,28.20
2022-11-05T08:34:24.073Z,28.30
2022-11-05T08:35:24.063Z,28.40
2022-11-05T08:36:24.052Z,24.20
2022-11-05T08:37:24.063Z,26.30
2022-11-05T08:38:24.039Z,25.10
2022-11-05T08:39:24.020Z,25.90
2022-11-05T08:40:24.009Z,25.70
2022-11-05T08:41:24.004Z,26.80
2022-11-05T08:42:24.017Z,31.90
2022-11-05T08:43:23.982Z,29.90
2022-11-05T08:44:23.978Z,28.00
2022-11-05T08:45:23.963Z,26.70
2022-11-05T08:46:23.985Z,29.00
2022-11-05T08:47:23.964Z,30.00
2022-11-05T08:48:23.965Z,32.70
2022-11-05T08:49:23.924Z,32.00
2022-11-05T08:50:23.915Z,33.60
2022-11-05T08:51:23.916Z,32.50
2022-11-05T08:52:23.918Z,30.30
2022-11-05T08:53:23.884Z,30.50
2022-11-05T08:54:23.877Z,28.00
2022-11-05T08:55:23.866Z,32.20
2022-11-05T08:56:23.857Z,29.10
2022-11-05T08:57:23.865Z,30.20
2022-11-05T08:58:23.832Z,31.60
2022-11-05T08:59:23.824Z,32.20
2022-11-05T09:00:23.907Z,32.20
2022-11-05T09:01:23.901Z,29.90
2022-11-05T09:02:23.878Z,33.00
2022-11-05T09:03:23.789Z,29.90
2022-11-05T09:04:23.779Z,31.40
2022-11-05T09:05:23.769Z,30.10
2022-11-05T09:06:23.762Z,33.00
2022-11-05T09:07:23.773Z,32.80
2022-11-05T09:08:23.750Z,28.50
2022-11-05T09:09:23.732Z,29.50
2022-11-05T09:10:23.851Z,29.20
2022-11-05T09:11:33.149Z,36.20
2022-11-05T09:12:25.717Z,32.80
2022-11-05T09:13:23.862Z,35.10
2022-11-05T09:14:23.678Z,34.60
2022-11-05T09:15:23.681Z,27.10
2022-11-05T09:16:23.645Z,25.70
2022-11-05T09:17:23.673Z,28.80
2022-11-05T09:18:23.640Z,29.40
2022-11-05T09:19:23.632Z,29.50
2022-11-05T09:20:23.759Z,28.80
2022-11-05T09:21:23.612Z,29.40
2022-11-05T09:22:23.627Z,28.90
2022-11-05T09:23:23.604Z,23.50
2022-11-05T09:24:23.587Z,25.00
2022-11-05T09:25:23.578Z,20.00
2022-11-05T09:26:23.581Z,24.20
2022-11-05T09:27:23.576Z,24.60
2022-11-05T09:28:23.562Z,26.60
2022-11-05T09:29:23.540Z,22.50
2022-11-05T09:30:23.564Z,24.20
2022-11-05T09:31:23.516Z,24.80
2022-11-05T09:32:23.528Z,25.90
2022-11-05T09:33:23.512Z,24.20
2022-11-05T09:34:23.485Z,24.30
2022-11-05T09:35:23.473Z,24.60
2022-11-05T09:36:23.639Z,24.70
2022-11-05T09:37:23.477Z,25.10
2022-11-05T09:38:23.445Z,23.80
2022-11-05T09:39:23.438Z,23.10
2022-11-05T09:40:23.524Z,22.70
2022-11-05T09:41:23.420Z,25.70
2022-11-05T09:42:23.513Z,23.00
2022-11-05T09:43:28.800Z,22.90
2022-11-05T09:44:23.399Z,21.90
2022-11-05T09:45:23.404Z,22.40
2022-11-05T09:46:23.398Z,24.40
2022-11-05T09:47:23.387Z,30.20
2022-11-05T09:48:23.356Z,20.40
2022-11-05T09:49:23.344Z,17.30
2022-11-05T09:50:23.421Z,18.70
2022-11-05T09:51:24.297Z,18.60
2022-11-05T09:52:23.328Z,20.20
2022-11-05T09:53:23.299Z,23.40
2022-11-05T09:54:23.289Z,21.30
2022-11-05T09:55:23.272Z,19.70
2022-11-05T09:56:23.265Z,19.10
2022-11-05T09:57:23.282Z,21.70
2022-11-05T09:58:28.372Z,21.50
2022-11-05T09:59:25.238Z,16.60
2022-11-05T10:00:23.307Z,19.40
2022-11-05T10:01:23.356Z,22.60
2022-11-05T10:02:23.290Z,22.40
2022-11-05T10:03:23.198Z,20.20
2022-11-05T10:04:23.189Z,18.70
2022-11-05T10:05:23.269Z,19.40
2022-11-05T10:06:23.171Z,19.30
2022-11-05T10:07:23.174Z,17.00
2022-11-05T10:08:23.142Z,16.10
2022-11-05T10:09:23.179Z,19.40
2022-11-05T10:10:23.130Z,18.00
2022-11-05T10:11:23.114Z,13.30
2022-11-05T10:12:23.219Z,17.00
2022-11-05T10:13:23.111Z,16.00
2022-11-05T10:14:23.094Z,14.20
2022-11-05T10:15:23.085Z,15.80
2022-11-05T10:16:23.070Z,15.10
2022-11-05T10:17:23.092Z,19.10
2022-11-05T10:18:23.100Z,17.40
2022-11-05T10:19:23.037Z,14.20
2022-11-05T10:20:23.032Z,18.40
2022-11-05T10:21:44.228Z,14.10
2022-11-05T10:22:25.030Z,15.70
2022-11-05T10:23:22.999Z,16.50
2022-11-05T10:24:22.988Z,13.70
2022-11-05T10:25:22.983Z,14.40
2022-11-05T10:26:22.966Z,13.40
2022-11-05T10:27:22.949Z,9.80
2022-11-05T10:28:23.159Z,10.40
2022-11-05T10:29:22.947Z,16.80
2022-11-05T10:30:22.931Z,17.90
2022-11-05T10:31:22.926Z,11.10
2022-11-05T10:32:22.964Z,11.30
2022-11-05T10:33:22.921Z,12.00
2022-11-05T10:34:22.889Z,11.90
2022-11-05T10:35:22.876Z,13.40
2022-11-05T10:36:22.874Z,13.10
2022-11-05T10:37:22.863Z,11.60
2022-11-05T10:38:22.873Z,11.00
2022-11-05T10:39:22.874Z,13.50
2022-11-05T10:40:22.967Z,13.80
2022-11-05T10:41:22.825Z,16.40
2022-11-05T10:42:22.815Z,12.00
2022-11-05T10:43:22.828Z,11.60
2022-11-05T10:44:22.796Z,13.30
2022-11-05T10:45:22.788Z,17.10
2022-11-05T10:46:22.779Z,9.40
2022-11-05T10:47:22.758Z,7.80
2022-11-05T10:48:22.779Z,11.80
2022-11-05T10:49:22.871Z,10.90
2022-11-05T10:50:22.738Z,10.00
2022-11-05T10:51:22.713Z,10.60
2022-11-05T10:52:22.710Z,12.70
2022-11-05T10:53:22.725Z,10.40
2022-11-05T10:54:22.695Z,12.00
2022-11-05T10:55:22.679Z,13.20
2022-11-05T10:56:22.747Z,10.00
2022-11-05T10:57:22.664Z,12.00
2022-11-05T10:58:22.672Z,11.80
2022-11-05T10:59:22.666Z,9.60
2022-11-05T11:00:22.632Z,10.70
2022-11-05T11:01:22.717Z,13.90
2022-11-05T11:02:22.689Z,13.10
2022-11-05T11:03:22.614Z,16.70
2022-11-05T11:04:22.597Z,11.50
2022-11-05T11:05:22.592Z,12.00
2022-11-05T11:06:22.572Z,11.40
2022-11-05T11:07:22.548Z,11.10
2022-11-05T11:08:22.572Z,11.90
2022-11-05T11:09:22.539Z,13.80
2022-11-05T11:10:22.529Z,8.70
2022-11-05T11:11:22.526Z,8.00
2022-11-05T11:12:22.508Z,7.10
2022-11-05T11:13:22.527Z,8.30
2022-11-05T11:14:22.495Z,6.70
2022-11-05T11:15:22.481Z,10.50
2022-11-05T11:16:22.483Z,6.80
2022-11-05T11:17:22.476Z,7.90
2022-11-05T11:18:22.476Z,7.90
2022-11-05T11:19:22.451Z,9.20
2022-11-05T11:20:22.442Z,9.50
2022-11-05T11:21:22.424Z,7.30
2022-11-05T11:22:22.417Z,8.10
2022-11-05T11:23:22.423Z,11.60
2022-11-05T11:24:22.401Z,9.10
2022-11-05T11:25:22.385Z,10.50
2022-11-05T11:26:22.385Z,10.10
2022-11-05T11:27:22.363Z,9.40
2022-11-05T11:28:22.375Z,7.90
2022-11-05T11:29:22.345Z,8.30
2022-11-05T11:30:22.336Z,8.40
2022-11-05T11:31:22.323Z,7.90
2022-11-05T11:32:22.317Z,9.30
2022-11-05T11:33:22.327Z,7.00
2022-11-05T11:34:22.299Z,9.40
2022-11-05T11:35:22.293Z,5.90
2022-11-05T11:36:22.283Z,7.20
2022-11-05T11:37:22.265Z,7.80
2022-11-05T11:38:22.279Z,8.70
2022-11-05T11:39:22.254Z,8.80
2022-11-05T11:40:22.236Z,6.50
2022-11-05T11:41:22.231Z,8.00
2022-11-05T11:42:22.228Z,10.00
2022-11-05T11:43:22.231Z,7.60
2022-11-05T11:44:22.195Z,7.00
2022-11-05T11:45:22.189Z,7.70
2022-11-05T11:46:22.189Z,10.70
2022-11-05T11:47:22.170Z,7.60
2022-11-05T11:48:22.177Z,8.00
2022-11-05T11:49:22.154Z,7.50
2022-11-05T11:50:22.139Z,7.60
2022-11-05T11:51:22.129Z,9.80
2022-11-05T11:52:22.127Z,10.30
2022-11-05T11:53:22.141Z,9.20
2022-11-05T11:54:24.819Z,8.20
2022-11-05T11:55:23.094Z,10.00
2022-11-05T11:56:22.083Z,14.10
2022-11-05T11:57:22.097Z,9.50
2022-11-05T11:58:22.067Z,7.70
2022-11-05T11:59:35.122Z,5.30
2022-11-05T12:00:24.058Z,7.70
2022-11-05T12:01:22.055Z,8.00
2022-11-05T12:02:22.185Z,8.00
2022-11-05T12:03:22.103Z,7.50
2022-11-05T12:04:22.009Z,8.30
2022-11-05T12:05:21.984Z,7.10
2022-11-05T12:06:21.989Z,5.90
2022-11-05T12:07:21.993Z,6.60
2022-11-05T12:08:21.965Z,7.60
2022-11-05T12:09:21.955Z,6.80
2022-11-05T12:10:21.946Z,7.90
2022-11-05T12:11:21.937Z,7.10
2022-11-05T12:12:21.932Z,8.30
2022-11-05T12:13:21.912Z,9.50
2022-11-05T12:14:21.903Z,8.70
2022-11-05T12:15:21.893Z,8.80
2022-11-05T12:16:21.949Z,10.60
2022-11-05T12:17:21.893Z,9.20
2022-11-05T12:18:21.861Z,9.70
2022-11-05T12:19:21.853Z,8.40
2022-11-05T12:20:21.836Z,8.70
2022-11-05T12:21:47.759Z,11.30
2022-11-05T12:22:22.846Z,8.00
2022-11-05T12:23:21.816Z,8.30
2022-11-05T12:24:21.810Z,10.30
2022-11-05T12:25:21.795Z,6.20
2022-11-05T12:26:21.794Z,7.30
2022-11-05T12:27:21.795Z,7.40
2022-11-05T12:28:21.768Z,10.70
2022-11-05T12:29:21.764Z,6.80
2022-11-05T12:31:47.745Z,8.60
2022-11-05T12:32:47.663Z,10.70
2022-11-05T12:33:47.597Z,8.40
2022-11-05T12:34:47.588Z,8.80
2022-11-05T12:35:53.325Z,7.50
2022-11-05T12:36:49.680Z,10.00
2022-11-05T12:37:48.704Z,9.70
2022-11-05T12:38:48.673Z,8.70
2022-11-05T12:39:48.654Z,8.00
2022-11-05T12:40:49.647Z,7.00
2022-11-05T12:41:48.642Z,10.30
2022-11-05T12:42:48.647Z,9.50
2022-11-05T12:43:48.624Z,6.60
2022-11-05T12:44:48.620Z,9.30
2022-11-05T12:45:48.599Z,8.90
2022-11-05T12:46:48.592Z,12.70
2022-11-05T12:47:48.596Z,7.70
2022-11-05T12:48:48.575Z,8.20
2022-11-05T12:49:48.558Z,9.80
2022-11-05T12:50:48.560Z,8.70
2022-11-05T12:51:48.550Z,8.20
2022-11-05T12:52:48.555Z,10.40
2022-11-05T12:53:48.523Z,9.50
2022-11-05T12:54:48.509Z,8.70
2022-11-05T12:55:48.979Z,7.60
2022-11-05T12:56:49.495Z,8.20